createdAt,value
2019-02-07T00:00:03.943Z,20.9
2019-02-07T00:00:38.823Z,20.86
2019-02-07T00:01:10.838Z,20.81
2019-02-07T00:01:42.848Z,20.82
2019-02-07T00:02:14.889Z,20.81
2019-02-07T00:02:46.891Z,20.88
2019-02-07T00:03:18.907Z,20.9
2019-02-07T00:03:50.910Z,20.81
2019-02-07T00:04:22.925Z,20.78
2019-02-07T00:04:54.939Z,20.88
2019-02-07T00:05:27.054Z,20.81
2019-02-07T00:05:59.083Z,20.83
2019-02-07T00:06:31.132Z,20.76
2019-02-07T00:07:03.130Z,20.82
2019-02-07T00:07:35.686Z,20.88
2019-02-07T00:08:07.768Z,20.86
2019-02-07T00:08:41.073Z,20.81
2019-02-07T00:09:13.159Z,20.83
2019-02-07T00:09:45.186Z,20.81
2019-02-07T00:10:17.179Z,20.85
2019-02-07T00:10:49.194Z,20.83
2019-02-07T00:11:21.187Z,20.78
2019-02-07T00:11:53.189Z,20.81
2019-02-07T00:12:25.196Z,20.79
2019-02-07T00:12:57.211Z,20.93
2019-02-07T00:13:29.250Z,20.76
2019-02-07T00:14:01.249Z,20.82
2019-02-07T00:14:39.603Z,20.83
2019-02-07T00:15:12.014Z,20.86
2019-02-07T00:15:44.027Z,20.82
2019-02-07T00:16:16.028Z,20.76
2019-02-07T00:16:48.032Z,20.86
2019-02-07T00:17:20.056Z,20.83
2019-02-07T00:17:53.609Z,20.86
2019-02-07T00:18:25.607Z,20.82
2019-02-07T00:18:57.929Z,20.81
2019-02-07T00:19:29.938Z,20.76
2019-02-07T00:20:01.970Z,20.79
2019-02-07T00:20:33.975Z,20.86
2019-02-07T00:21:05.982Z,20.81
2019-02-07T00:21:38.024Z,20.81
2019-02-07T00:22:10.052Z,20.76
2019-02-07T00:22:42.147Z,20.83
2019-02-07T00:23:14.133Z,20.88
2019-02-07T00:23:46.133Z,20.9
2019-02-07T00:24:18.130Z,20.81
2019-02-07T00:24:50.249Z,20.81
2019-02-07T00:25:22.279Z,20.82
2019-02-07T00:25:55.807Z,20.83
2019-02-07T00:26:27.813Z,20.79
2019-02-07T00:27:00.212Z,20.86
2019-02-07T00:27:32.220Z,20.82
2019-02-07T00:28:04.254Z,20.78
2019-02-07T00:28:36.284Z,20.83
2019-02-07T00:29:08.273Z,20.82
2019-02-07T00:29:40.258Z,20.81
2019-02-07T00:30:12.254Z,20.85
2019-02-07T00:30:44.284Z,20.85
2019-02-07T00:31:16.309Z,20.9
2019-02-07T00:31:48.455Z,20.79
2019-02-07T00:32:20.491Z,20.79
2019-02-07T00:32:52.737Z,20.85
2019-02-07T00:33:24.743Z,20.86
2019-02-07T00:33:58.642Z,20.85
2019-02-07T00:34:30.656Z,20.71
2019-02-07T00:35:04.181Z,20.82
2019-02-07T00:35:36.178Z,20.79
2019-02-07T00:36:08.181Z,20.86
2019-02-07T00:36:40.193Z,20.85
2019-02-07T00:37:12.195Z,20.85
2019-02-07T00:37:44.206Z,20.83
2019-02-07T00:38:16.222Z,20.88
2019-02-07T00:38:48.238Z,20.79
2019-02-07T00:39:20.352Z,20.85
2019-02-07T00:39:52.364Z,20.86
2019-02-07T00:40:24.381Z,20.79
2019-02-07T00:40:56.388Z,20.88
2019-02-07T00:41:28.389Z,20.83
2019-02-07T00:42:00.615Z,20.82
2019-02-07T00:42:32.698Z,20.86
2019-02-07T00:43:06.183Z,20.82
2019-02-07T00:43:38.243Z,20.85
2019-02-07T00:44:10.240Z,20.83
2019-02-07T00:44:50.367Z,20.79
2019-02-07T00:45:26.609Z,20.79
2019-02-07T00:45:58.634Z,20.85
2019-02-07T00:46:32.281Z,20.86
2019-02-07T00:47:04.275Z,20.83
2019-02-07T00:47:36.276Z,20.78
2019-02-07T00:48:08.283Z,20.85
2019-02-07T00:48:40.278Z,20.81
2019-02-07T00:49:12.310Z,20.81
2019-02-07T00:49:44.311Z,20.86
2019-02-07T00:50:16.296Z,20.81
2019-02-07T00:50:48.299Z,20.86
2019-02-07T00:51:20.405Z,20.83
2019-02-07T00:51:52.396Z,20.86
2019-02-07T00:52:24.430Z,20.86
2019-02-07T00:52:56.426Z,20.86
2019-02-07T00:53:29.531Z,20.82
2019-02-07T00:54:01.548Z,20.85
2019-02-07T00:54:35.027Z,20.83
2019-02-07T00:55:07.016Z,20.79
2019-02-07T00:55:39.052Z,20.83
2019-02-07T00:56:11.095Z,20.85
2019-02-07T00:56:43.094Z,20.82
2019-02-07T00:57:15.152Z,20.85
2019-02-07T00:57:47.170Z,20.86
2019-02-07T00:58:19.170Z,20.85
2019-02-07T00:58:51.176Z,20.82
2019-02-07T00:59:23.298Z,20.9
2019-02-07T00:59:55.311Z,20.82
2019-02-07T01:00:27.338Z,20.68
2019-02-07T01:00:59.357Z,20.78
2019-02-07T01:01:31.558Z,20.76
2019-02-07T01:02:03.572Z,20.83
2019-02-07T01:02:37.195Z,20.75
2019-02-07T01:03:09.227Z,20.82
2019-02-07T01:03:41.558Z,20.81
2019-02-07T01:04:13.555Z,20.85
2019-02-07T01:04:45.553Z,20.71
2019-02-07T01:05:17.530Z,20.85
2019-02-07T01:05:49.574Z,20.81
2019-02-07T01:06:21.554Z,20.75
2019-02-07T01:06:53.635Z,20.79
2019-02-07T01:07:25.622Z,20.79
2019-02-07T01:07:57.646Z,20.75
2019-02-07T01:08:29.649Z,20.78
2019-02-07T01:09:01.660Z,20.82
2019-02-07T01:09:33.645Z,20.78
2019-02-07T01:10:05.654Z,20.81
2019-02-07T01:10:39.068Z,20.79
2019-02-07T01:11:11.070Z,20.82
2019-02-07T01:11:43.434Z,20.79
2019-02-07T01:12:15.457Z,20.79
2019-02-07T01:12:47.458Z,20.76
2019-02-07T01:13:19.471Z,20.79
2019-02-07T01:13:51.484Z,20.78
2019-02-07T01:14:23.502Z,20.79
2019-02-07T01:15:01.779Z,20.79
2019-02-07T01:15:34.444Z,20.79
2019-02-07T01:16:06.608Z,20.74
2019-02-07T01:16:38.621Z,20.76
2019-02-07T01:17:10.631Z,20.78
2019-02-07T01:17:42.631Z,20.81
2019-02-07T01:18:14.661Z,20.75
2019-02-07T01:18:46.652Z,20.81
2019-02-07T01:19:18.632Z,20.76
2019-02-07T01:19:52.062Z,20.78
2019-02-07T01:20:24.086Z,20.75
2019-02-07T01:20:57.519Z,20.75
2019-02-07T01:21:29.550Z,20.76
2019-02-07T01:22:01.568Z,20.78
2019-02-07T01:22:33.559Z,20.81
2019-02-07T01:23:05.582Z,20.82
2019-02-07T01:23:37.580Z,20.75
2019-02-07T01:24:09.572Z,20.78
2019-02-07T01:24:41.587Z,20.68
2019-02-07T01:25:13.613Z,20.76
2019-02-07T01:25:45.612Z,20.81
2019-02-07T01:26:17.612Z,20.76
2019-02-07T01:26:49.642Z,20.72
2019-02-07T01:27:21.634Z,20.75
2019-02-07T01:27:54.940Z,20.76
2019-02-07T01:28:26.973Z,20.75
2019-02-07T01:29:00.141Z,20.79
2019-02-07T01:29:32.132Z,20.75
2019-02-07T01:30:04.133Z,20.76
2019-02-07T01:30:36.128Z,20.79
2019-02-07T01:31:08.141Z,20.78
2019-02-07T01:31:40.131Z,20.67
2019-02-07T01:32:12.135Z,20.75
2019-02-07T01:32:44.141Z,20.75
2019-02-07T01:33:16.139Z,20.72
2019-02-07T01:33:48.140Z,20.67
2019-02-07T01:34:20.157Z,20.72
2019-02-07T01:34:52.177Z,20.67
2019-02-07T01:35:24.187Z,20.66
2019-02-07T01:35:57.736Z,20.72
2019-02-07T01:36:29.746Z,20.72
2019-02-07T01:37:03.229Z,20.79
2019-02-07T01:37:35.257Z,20.71
2019-02-07T01:38:07.248Z,20.72
2019-02-07T01:38:39.257Z,20.75
2019-02-07T01:39:11.257Z,20.78
2019-02-07T01:39:43.282Z,20.74
2019-02-07T01:40:15.281Z,20.71
2019-02-07T01:40:47.277Z,20.76
2019-02-07T01:41:19.290Z,20.79
2019-02-07T01:41:51.313Z,20.72
2019-02-07T01:42:23.324Z,20.68
2019-02-07T01:42:55.895Z,20.72
2019-02-07T01:43:28.101Z,20.67
2019-02-07T01:44:01.124Z,20.81
2019-02-07T01:44:33.137Z,20.79
2019-02-07T01:45:12.905Z,20.68
2019-02-07T01:45:45.354Z,20.81
2019-02-07T01:46:18.648Z,20.68
2019-02-07T01:46:50.649Z,20.75
2019-02-07T01:47:23.848Z,20.74
2019-02-07T01:47:55.871Z,20.79
2019-02-07T01:48:27.891Z,20.71
2019-02-07T01:48:59.895Z,20.79
2019-02-07T01:49:31.888Z,20.72
2019-02-07T01:50:03.888Z,20.81
2019-02-07T01:50:35.927Z,20.74
2019-02-07T01:51:07.948Z,20.82
2019-02-07T01:51:39.961Z,20.79
2019-02-07T01:52:11.976Z,20.72
2019-02-07T01:52:43.984Z,20.76
2019-02-07T01:53:15.991Z,20.64
2019-02-07T01:53:48.008Z,20.79
2019-02-07T01:54:21.090Z,20.72
2019-02-07T01:54:53.101Z,20.79
2019-02-07T01:55:26.003Z,20.72
2019-02-07T01:55:58.011Z,20.75
2019-02-07T01:56:30.024Z,20.72
2019-02-07T01:57:02.040Z,20.68
2019-02-07T01:57:34.049Z,20.72
2019-02-07T01:58:06.053Z,20.75
2019-02-07T01:58:38.059Z,20.71
2019-02-07T01:59:10.099Z,20.74
2019-02-07T01:59:42.114Z,20.75
2019-02-07T02:00:14.118Z,20.71
2019-02-07T02:00:46.137Z,20.81
2019-02-07T02:01:18.301Z,20.72
2019-02-07T02:01:50.322Z,20.71
2019-02-07T02:02:23.618Z,20.76
2019-02-07T02:02:55.647Z,20.72
2019-02-07T02:03:28.162Z,20.72
2019-02-07T02:04:00.183Z,20.67
2019-02-07T02:04:32.228Z,20.71
2019-02-07T02:05:04.270Z,20.79
2019-02-07T02:05:36.292Z,20.81
2019-02-07T02:06:08.300Z,20.81
2019-02-07T02:06:40.306Z,20.72
2019-02-07T02:07:12.297Z,20.79
2019-02-07T02:07:44.324Z,20.67
2019-02-07T02:08:16.336Z,20.75
2019-02-07T02:08:48.347Z,20.74
2019-02-07T02:09:20.352Z,20.81
2019-02-07T02:09:52.356Z,20.72
2019-02-07T02:10:25.857Z,20.79
2019-02-07T02:10:57.845Z,20.71
2019-02-07T02:11:30.171Z,20.79
2019-02-07T02:12:02.183Z,20.72
2019-02-07T02:12:34.187Z,20.76
2019-02-07T02:13:06.207Z,20.78
2019-02-07T02:13:38.214Z,20.72
2019-02-07T02:14:10.242Z,20.78
2019-02-07T02:14:42.245Z,20.81
2019-02-07T02:15:23.944Z,20.81
2019-02-07T02:15:57.038Z,20.67
2019-02-07T02:16:29.050Z,20.79
2019-02-07T02:17:01.060Z,20.74
2019-02-07T02:17:33.074Z,20.79
2019-02-07T02:18:05.072Z,20.76
2019-02-07T02:18:37.210Z,20.75
2019-02-07T02:19:09.228Z,20.72
2019-02-07T02:19:41.252Z,20.76
2019-02-07T02:20:13.249Z,20.81
2019-02-07T02:20:46.554Z,20.78
2019-02-07T02:21:18.572Z,20.75
2019-02-07T02:21:51.668Z,20.72
2019-02-07T02:22:23.658Z,20.81
2019-02-07T02:22:55.667Z,20.81
2019-02-07T02:23:27.742Z,20.71
2019-02-07T02:23:59.751Z,20.81
2019-02-07T02:24:31.760Z,20.75
2019-02-07T02:25:03.779Z,20.72
2019-02-07T02:25:35.792Z,20.74
2019-02-07T02:26:07.810Z,20.72
2019-02-07T02:26:39.823Z,20.74
2019-02-07T02:27:11.945Z,20.79
2019-02-07T02:27:43.945Z,20.81
2019-02-07T02:28:15.972Z,20.81
2019-02-07T02:28:49.268Z,20.74
2019-02-07T02:29:21.271Z,20.78
2019-02-07T02:29:54.667Z,20.81
2019-02-07T02:30:26.664Z,20.81
2019-02-07T02:30:58.739Z,20.72
2019-02-07T02:31:30.788Z,20.81
2019-02-07T02:32:02.861Z,20.75
2019-02-07T02:32:34.909Z,20.78
2019-02-07T02:33:06.948Z,20.74
2019-02-07T02:33:39.005Z,20.83
2019-02-07T02:34:11.054Z,20.78
2019-02-07T02:34:43.073Z,20.76
2019-02-07T02:35:15.086Z,20.81
2019-02-07T02:35:47.086Z,20.74
2019-02-07T02:36:19.090Z,20.78
2019-02-07T02:36:52.489Z,20.81
2019-02-07T02:37:24.503Z,20.81
2019-02-07T02:37:57.625Z,20.81
2019-02-07T02:38:29.766Z,20.76
2019-02-07T02:39:01.829Z,20.79
2019-02-07T02:39:33.850Z,20.79
2019-02-07T02:40:05.876Z,20.83
2019-02-07T02:40:37.914Z,20.86
2019-02-07T02:41:09.928Z,20.81
2019-02-07T02:41:41.952Z,20.78
2019-02-07T02:42:13.977Z,20.81
2019-02-07T02:42:45.972Z,20.82
2019-02-07T02:43:17.988Z,20.78
2019-02-07T02:43:50.024Z,20.76
2019-02-07T02:44:22.022Z,20.81
2019-02-07T02:44:55.384Z,20.79
2019-02-07T02:45:36.877Z,20.76
2019-02-07T02:46:09.770Z,20.79
2019-02-07T02:46:41.763Z,20.76
2019-02-07T02:47:14.447Z,20.74
2019-02-07T02:47:46.495Z,20.64
2019-02-07T02:48:20.118Z,20.79
2019-02-07T02:48:52.157Z,20.82
2019-02-07T02:49:24.234Z,20.81
2019-02-07T02:49:56.329Z,20.78
2019-02-07T02:50:28.360Z,20.81
2019-02-07T02:51:00.368Z,20.76
2019-02-07T02:51:32.385Z,20.83
2019-02-07T02:52:04.409Z,20.79
2019-02-07T02:52:36.415Z,20.75
2019-02-07T02:53:11.540Z,20.82
2019-02-07T02:53:43.598Z,20.76
2019-02-07T02:54:15.620Z,20.79
2019-02-07T02:54:47.605Z,20.81
2019-02-07T02:55:19.637Z,20.76
2019-02-07T02:55:51.652Z,20.82
2019-02-07T02:56:24.872Z,20.82
2019-02-07T02:56:56.925Z,20.76
2019-02-07T02:57:30.017Z,20.81
2019-02-07T02:58:02.042Z,20.72
2019-02-07T02:58:34.128Z,20.75
2019-02-07T02:59:06.149Z,20.78
2019-02-07T02:59:38.180Z,20.72
2019-02-07T03:00:10.182Z,20.78
2019-02-07T03:00:42.182Z,20.82
2019-02-07T03:01:14.206Z,20.78
2019-02-07T03:01:46.241Z,20.81
2019-02-07T03:02:18.341Z,20.79
2019-02-07T03:02:50.375Z,20.79
2019-02-07T03:03:22.421Z,20.74
2019-02-07T03:03:54.459Z,20.75
2019-02-07T03:04:27.168Z,20.78
2019-02-07T03:04:59.262Z,20.71
2019-02-07T03:05:32.814Z,20.74
2019-02-07T03:06:04.848Z,20.72
2019-02-07T03:06:36.877Z,20.79
2019-02-07T03:07:08.935Z,20.79
2019-02-07T03:07:40.942Z,20.76
2019-02-07T03:08:12.942Z,20.78
2019-02-07T03:08:44.952Z,20.78
2019-02-07T03:09:16.978Z,20.81
2019-02-07T03:09:48.982Z,20.81
2019-02-07T03:10:20.994Z,20.74
2019-02-07T03:10:52.991Z,20.72
2019-02-07T03:11:25.000Z,20.78
2019-02-07T03:11:57.002Z,20.68
2019-02-07T03:12:29.456Z,20.76
2019-02-07T03:13:01.497Z,20.67
2019-02-07T03:13:35.115Z,20.76
2019-02-07T03:14:07.156Z,20.79
2019-02-07T03:14:39.166Z,20.72
2019-02-07T03:15:11.172Z,20.68
2019-02-07T03:15:49.418Z,20.71
2019-02-07T03:16:22.039Z,20.67
2019-02-07T03:16:54.049Z,20.72
2019-02-07T03:17:26.049Z,20.72
2019-02-07T03:17:58.101Z,20.68
2019-02-07T03:18:30.109Z,20.76
2019-02-07T03:19:02.126Z,20.74
2019-02-07T03:19:34.148Z,20.71
2019-02-07T03:20:06.225Z,20.76
2019-02-07T03:20:38.236Z,20.76
2019-02-07T03:21:10.303Z,20.67
2019-02-07T03:21:42.499Z,20.67
2019-02-07T03:22:14.515Z,20.74
2019-02-07T03:22:47.879Z,20.66
2019-02-07T03:23:19.892Z,20.74
2019-02-07T03:23:52.534Z,20.67
2019-02-07T03:24:24.611Z,20.75
2019-02-07T03:24:56.623Z,20.74
2019-02-07T03:25:28.631Z,20.67
2019-02-07T03:26:00.655Z,20.75
2019-02-07T03:26:32.671Z,20.78
2019-02-07T03:27:04.675Z,20.75
2019-02-07T03:27:36.687Z,20.67
2019-02-07T03:28:08.756Z,20.74
2019-02-07T03:28:40.762Z,20.64
2019-02-07T03:29:12.770Z,20.72
2019-02-07T03:29:44.780Z,20.76
2019-02-07T03:30:16.781Z,20.68
2019-02-07T03:30:50.225Z,20.81
2019-02-07T03:31:22.264Z,20.76
2019-02-07T03:31:55.351Z,20.72
2019-02-07T03:32:27.419Z,20.74
2019-02-07T03:32:59.466Z,20.68
2019-02-07T03:33:31.508Z,20.74
2019-02-07T03:34:03.586Z,20.68
2019-02-07T03:34:35.589Z,20.71
2019-02-07T03:35:07.593Z,20.71
2019-02-07T03:35:39.608Z,20.71
2019-02-07T03:36:11.615Z,20.72
2019-02-07T03:36:43.620Z,20.78
2019-02-07T03:37:15.620Z,20.75
2019-02-07T03:37:47.651Z,20.67
2019-02-07T03:38:19.677Z,20.66
2019-02-07T03:38:52.937Z,20.71
2019-02-07T03:39:24.941Z,20.74
2019-02-07T03:39:58.072Z,20.68
2019-02-07T03:40:30.102Z,20.76
2019-02-07T03:41:02.108Z,20.68
2019-02-07T03:41:34.120Z,20.76
2019-02-07T03:42:06.134Z,20.68
2019-02-07T03:42:38.151Z,20.72
2019-02-07T03:43:10.159Z,20.72
2019-02-07T03:43:42.165Z,20.71
2019-02-07T03:44:14.194Z,20.67
2019-02-07T03:44:46.200Z,20.76
2019-02-07T03:45:18.275Z,20.66
2019-02-07T03:46:02.015Z,20.67
2019-02-07T03:46:34.910Z,20.67
2019-02-07T03:47:06.925Z,20.72
2019-02-07T03:47:38.924Z,20.68
2019-02-07T03:48:10.948Z,20.68
2019-02-07T03:48:42.982Z,20.67
2019-02-07T03:49:15.040Z,20.68
2019-02-07T03:49:47.063Z,20.75
2019-02-07T03:50:20.463Z,20.68
2019-02-07T03:50:52.462Z,20.68
2019-02-07T03:51:24.811Z,20.72
2019-02-07T03:51:56.823Z,20.64
2019-02-07T03:52:28.830Z,20.74
2019-02-07T03:53:00.819Z,20.76
2019-02-07T03:53:32.846Z,20.75
2019-02-07T03:54:04.857Z,20.68
2019-02-07T03:54:36.862Z,20.72
2019-02-07T03:55:08.860Z,20.74
2019-02-07T03:55:40.880Z,20.66
2019-02-07T03:56:12.908Z,20.71
2019-02-07T03:56:44.920Z,20.63
2019-02-07T03:57:17.105Z,20.67
2019-02-07T03:57:49.123Z,20.76
2019-02-07T03:58:22.609Z,20.72
2019-02-07T03:58:54.620Z,20.68
2019-02-07T03:59:26.635Z,20.66
2019-02-07T03:59:58.655Z,20.71
2019-02-07T04:00:30.766Z,20.74
2019-02-07T04:01:02.776Z,20.67
2019-02-07T04:01:34.818Z,20.76
2019-02-07T04:02:06.811Z,20.67
2019-02-07T04:02:40.637Z,20.74
2019-02-07T04:03:12.803Z,20.66
2019-02-07T04:03:44.812Z,20.72
2019-02-07T04:04:16.813Z,20.71
2019-02-07T04:04:48.827Z,20.74
2019-02-07T04:05:20.853Z,20.68
2019-02-07T04:05:52.865Z,20.71
2019-02-07T04:06:25.737Z,20.71
2019-02-07T04:06:57.756Z,20.68
2019-02-07T04:07:31.309Z,20.61
2019-02-07T04:08:03.323Z,20.72
2019-02-07T04:08:35.359Z,20.66
2019-02-07T04:09:07.368Z,20.63
2019-02-07T04:09:39.386Z,20.68
2019-02-07T04:10:11.393Z,20.66
2019-02-07T04:10:43.403Z,20.71
2019-02-07T04:11:15.419Z,20.68
2019-02-07T04:11:47.425Z,20.72
2019-02-07T04:12:19.420Z,20.72
2019-02-07T04:12:51.440Z,20.71
2019-02-07T04:13:23.496Z,20.71
2019-02-07T04:13:55.516Z,20.71
2019-02-07T04:14:28.278Z,20.75
2019-02-07T04:15:00.413Z,20.66
2019-02-07T04:15:34.100Z,20.66
2019-02-07T04:16:14.650Z,20.64
2019-02-07T04:16:47.519Z,20.67
2019-02-07T04:17:19.527Z,20.63
2019-02-07T04:17:52.787Z,20.61
2019-02-07T04:18:24.852Z,20.66
2019-02-07T04:18:57.904Z,20.63
2019-02-07T04:19:29.949Z,20.61
2019-02-07T04:20:02.031Z,20.63
2019-02-07T04:20:34.047Z,20.68
2019-02-07T04:21:06.055Z,20.61
2019-02-07T04:21:38.077Z,20.6
2019-02-07T04:22:10.081Z,20.63
2019-02-07T04:22:42.106Z,20.58
2019-02-07T04:23:14.132Z,20.6
2019-02-07T04:23:46.165Z,20.61
2019-02-07T04:24:18.605Z,20.67
2019-02-07T04:24:50.763Z,20.61
2019-02-07T04:25:22.784Z,20.64
2019-02-07T04:25:55.729Z,20.64
2019-02-07T04:26:27.750Z,20.64
2019-02-07T04:27:01.352Z,20.6
2019-02-07T04:27:33.355Z,20.58
2019-02-07T04:28:05.361Z,20.6
2019-02-07T04:28:37.449Z,20.6
2019-02-07T04:29:09.456Z,20.54
2019-02-07T04:29:41.484Z,20.6
2019-02-07T04:30:13.479Z,20.6
2019-02-07T04:30:45.546Z,20.6
2019-02-07T04:31:17.549Z,20.56
2019-02-07T04:31:49.548Z,20.6
2019-02-07T04:32:21.566Z,20.6
2019-02-07T04:32:53.601Z,20.61
2019-02-07T04:33:25.611Z,20.53
2019-02-07T04:33:58.170Z,20.51
2019-02-07T04:34:30.183Z,20.56
2019-02-07T04:35:03.690Z,20.56
2019-02-07T04:35:35.718Z,20.56
2019-02-07T04:36:08.942Z,20.58
2019-02-07T04:36:40.961Z,20.57
2019-02-07T04:37:12.967Z,20.58
2019-02-07T04:37:44.965Z,20.58
2019-02-07T04:38:16.963Z,20.58
2019-02-07T04:38:48.975Z,20.51
2019-02-07T04:39:20.988Z,20.58
2019-02-07T04:39:52.977Z,20.6
2019-02-07T04:40:25.025Z,20.61
2019-02-07T04:40:57.037Z,20.57
2019-02-07T04:41:29.139Z,20.54
2019-02-07T04:42:01.265Z,20.57
2019-02-07T04:42:33.286Z,20.58
2019-02-07T04:43:06.624Z,20.6
2019-02-07T04:43:38.627Z,20.6
2019-02-07T04:44:11.691Z,20.6
2019-02-07T04:44:43.694Z,20.57
2019-02-07T04:45:15.702Z,20.56
2019-02-07T04:45:47.712Z,20.61
2019-02-07T04:46:26.541Z,20.56
2019-02-07T04:46:59.203Z,20.54
2019-02-07T04:47:31.230Z,20.57
2019-02-07T04:48:03.245Z,20.56
2019-02-07T04:48:35.370Z,20.57
2019-02-07T04:49:07.383Z,20.56
2019-02-07T04:49:39.496Z,20.6
2019-02-07T04:50:11.624Z,20.54
2019-02-07T04:50:43.627Z,20.57
2019-02-07T04:51:15.632Z,20.57
2019-02-07T04:51:47.644Z,20.56
2019-02-07T04:52:19.768Z,20.6
2019-02-07T04:52:51.759Z,20.61
2019-02-07T04:53:25.334Z,20.56
2019-02-07T04:53:57.350Z,20.57
2019-02-07T04:54:29.678Z,20.51
2019-02-07T04:55:01.703Z,20.6
2019-02-07T04:55:33.730Z,20.58
2019-02-07T04:56:05.760Z,20.56
2019-02-07T04:56:37.759Z,20.57
2019-02-07T04:57:09.767Z,20.53
2019-02-07T04:57:41.776Z,20.51
2019-02-07T04:58:13.800Z,20.6
2019-02-07T04:58:45.822Z,20.6
2019-02-07T04:59:17.834Z,20.57
2019-02-07T04:59:49.839Z,20.51
2019-02-07T05:00:22.045Z,20.57
2019-02-07T05:00:54.082Z,20.57
2019-02-07T05:01:27.709Z,20.57
2019-02-07T05:01:59.747Z,20.6
2019-02-07T05:02:32.466Z,20.57
2019-02-07T05:03:04.512Z,20.57
2019-02-07T05:03:36.604Z,20.57
2019-02-07T05:04:08.632Z,20.56
2019-02-07T05:04:40.755Z,20.6
2019-02-07T05:05:12.865Z,20.53
2019-02-07T05:05:45.032Z,20.57
2019-02-07T05:06:17.034Z,20.58
2019-02-07T05:06:49.050Z,20.6
2019-02-07T05:07:21.086Z,20.6
2019-02-07T05:07:53.189Z,20.57
2019-02-07T05:08:25.205Z,20.57
2019-02-07T05:08:57.216Z,20.61
2019-02-07T05:09:30.695Z,20.51
2019-02-07T05:10:02.741Z,20.58
2019-02-07T05:10:35.727Z,20.58
2019-02-07T05:11:07.748Z,20.54
2019-02-07T05:11:39.754Z,20.6
2019-02-07T05:12:11.779Z,20.54
2019-02-07T05:12:43.792Z,20.57
2019-02-07T05:13:15.789Z,20.58
2019-02-07T05:13:47.768Z,20.57
2019-02-07T05:14:19.794Z,20.51
2019-02-07T05:14:51.817Z,20.57
2019-02-07T05:15:23.951Z,20.58
2019-02-07T05:15:55.978Z,20.6
2019-02-07T05:16:39.049Z,20.61
2019-02-07T05:17:15.338Z,20.54
2019-02-07T05:17:47.481Z,20.56
2019-02-07T05:18:19.483Z,20.56
2019-02-07T05:18:51.474Z,20.6
2019-02-07T05:19:23.481Z,20.57
2019-02-07T05:19:55.514Z,20.6
2019-02-07T05:20:27.531Z,20.61
2019-02-07T05:21:00.905Z,20.6
2019-02-07T05:21:32.922Z,20.6
2019-02-07T05:22:05.699Z,20.61
2019-02-07T05:22:37.725Z,20.6
2019-02-07T05:23:09.763Z,20.63
2019-02-07T05:23:41.784Z,20.61
2019-02-07T05:24:13.817Z,20.6
2019-02-07T05:24:45.843Z,20.58
2019-02-07T05:25:17.822Z,20.57
2019-02-07T05:25:49.833Z,20.6
2019-02-07T05:26:21.859Z,20.66
2019-02-07T05:26:53.862Z,20.67
2019-02-07T05:27:25.899Z,20.56
2019-02-07T05:27:57.963Z,20.57
2019-02-07T05:28:29.990Z,20.57
2019-02-07T05:29:03.496Z,20.54
2019-02-07T05:29:35.609Z,20.58
2019-02-07T05:30:07.616Z,20.67
2019-02-07T05:30:39.629Z,20.61
2019-02-07T05:31:11.661Z,20.61
2019-02-07T05:31:43.719Z,20.54
2019-02-07T05:32:15.716Z,20.6
2019-02-07T05:32:47.793Z,20.57
2019-02-07T05:33:19.911Z,20.63
2019-02-07T05:33:52.044Z,20.61
2019-02-07T05:34:24.156Z,20.57
2019-02-07T05:34:56.158Z,20.63
2019-02-07T05:35:28.153Z,20.61
2019-02-07T05:36:00.329Z,20.6
2019-02-07T05:36:32.344Z,20.58
2019-02-07T05:37:05.849Z,20.57
2019-02-07T05:37:37.874Z,20.58
2019-02-07T05:38:09.876Z,20.58
2019-02-07T05:38:41.884Z,20.58
2019-02-07T05:39:13.894Z,20.57
2019-02-07T05:39:45.903Z,20.57
2019-02-07T05:40:17.928Z,20.63
2019-02-07T05:40:49.935Z,20.61
2019-02-07T05:41:21.938Z,20.61
2019-02-07T05:41:53.967Z,20.6
2019-02-07T05:42:25.982Z,20.58
2019-02-07T05:42:58.028Z,20.57
2019-02-07T05:43:30.028Z,20.58
2019-02-07T05:44:02.790Z,20.67
2019-02-07T05:44:34.814Z,20.57
2019-02-07T05:45:08.110Z,20.6
2019-02-07T05:45:40.123Z,20.61
2019-02-07T05:46:12.128Z,20.57
2019-02-07T05:46:50.845Z,20.66
2019-02-07T05:47:24.643Z,20.57
2019-02-07T05:47:56.656Z,20.64
2019-02-07T05:48:28.673Z,20.61
2019-02-07T05:49:00.702Z,20.57
2019-02-07T05:49:32.708Z,20.61
2019-02-07T05:50:04.688Z,20.6
2019-02-07T05:50:36.740Z,20.61
2019-02-07T05:51:08.760Z,20.57
2019-02-07T05:51:40.773Z,20.58
2019-02-07T05:52:12.808Z,20.64
2019-02-07T05:52:44.816Z,20.63
2019-02-07T05:53:16.829Z,20.58
2019-02-07T05:53:48.834Z,20.61
2019-02-07T05:54:21.884Z,20.63
2019-02-07T05:54:53.889Z,20.63
2019-02-07T05:55:27.548Z,20.6
2019-02-07T05:55:59.556Z,20.61
2019-02-07T05:56:31.574Z,20.58
2019-02-07T05:57:03.557Z,20.57
2019-02-07T05:57:35.579Z,20.66
2019-02-07T05:58:07.606Z,20.58
2019-02-07T05:58:39.612Z,20.61
2019-02-07T05:59:11.725Z,20.63
2019-02-07T05:59:43.743Z,20.64
2019-02-07T06:00:15.745Z,20.61
2019-02-07T06:00:47.732Z,20.57
2019-02-07T06:01:19.752Z,20.66
2019-02-07T06:01:51.785Z,20.6
2019-02-07T06:02:25.120Z,20.61
2019-02-07T06:02:57.129Z,20.66
2019-02-07T06:03:30.496Z,20.6
2019-02-07T06:04:02.500Z,20.6
2019-02-07T06:04:34.522Z,20.58
2019-02-07T06:05:06.532Z,20.6
2019-02-07T06:05:38.622Z,20.6
2019-02-07T06:06:10.639Z,20.6
2019-02-07T06:06:42.667Z,20.6
2019-02-07T06:07:14.677Z,20.56
2019-02-07T06:07:46.681Z,20.54
2019-02-07T06:08:18.686Z,20.63
2019-02-07T06:08:50.713Z,20.6
2019-02-07T06:09:22.708Z,20.61
2019-02-07T06:09:54.727Z,20.6
2019-02-07T06:10:27.911Z,20.57
2019-02-07T06:10:59.931Z,20.57
2019-02-07T06:11:33.589Z,20.58
2019-02-07T06:12:05.581Z,20.58
2019-02-07T06:12:37.577Z,20.57
2019-02-07T06:13:09.558Z,20.53
2019-02-07T06:13:41.571Z,20.6
2019-02-07T06:14:13.571Z,20.56
2019-02-07T06:14:45.674Z,20.56
2019-02-07T06:15:17.769Z,20.57
2019-02-07T06:15:49.809Z,20.58
2019-02-07T06:16:21.797Z,20.57
2019-02-07T06:17:02.176Z,20.58
2019-02-07T06:17:34.776Z,20.61
2019-02-07T06:18:06.783Z,20.54
2019-02-07T06:18:38.798Z,20.57
2019-02-07T06:19:10.795Z,20.6
2019-02-07T06:19:42.797Z,20.56
2019-02-07T06:20:14.796Z,20.57
2019-02-07T06:20:47.753Z,20.6
2019-02-07T06:21:19.789Z,20.61
2019-02-07T06:21:53.532Z,20.61
2019-02-07T06:22:25.542Z,20.51
2019-02-07T06:22:57.535Z,20.61
2019-02-07T06:23:29.591Z,20.58
2019-02-07T06:24:01.684Z,20.51
2019-02-07T06:24:33.725Z,20.56
2019-02-07T06:25:05.818Z,20.57
2019-02-07T06:25:38.028Z,20.6
2019-02-07T06:26:10.049Z,20.56
2019-02-07T06:26:42.063Z,20.6
2019-02-07T06:27:14.079Z,20.58
2019-02-07T06:27:46.133Z,20.57
2019-02-07T06:28:18.169Z,20.6
2019-02-07T06:28:50.478Z,20.58
2019-02-07T06:29:22.479Z,20.6
2019-02-07T06:29:56.089Z,20.6
2019-02-07T06:30:28.105Z,20.57
2019-02-07T06:31:00.115Z,20.58
2019-02-07T06:31:32.130Z,20.56
2019-02-07T06:32:04.153Z,20.57
2019-02-07T06:32:36.156Z,20.56
2019-02-07T06:33:08.180Z,20.57
2019-02-07T06:33:40.169Z,20.58
2019-02-07T06:34:12.173Z,20.58
2019-02-07T06:34:44.181Z,20.58
2019-02-07T06:35:16.195Z,20.53
2019-02-07T06:35:48.241Z,20.53
2019-02-07T06:36:20.277Z,20.57
2019-02-07T06:36:52.747Z,20.6
2019-02-07T06:37:24.761Z,20.6
2019-02-07T06:37:58.832Z,20.6
2019-02-07T06:38:30.973Z,20.58
2019-02-07T06:39:04.137Z,20.57
2019-02-07T06:39:36.208Z,20.57
2019-02-07T06:40:08.265Z,20.57
2019-02-07T06:40:40.345Z,20.61
2019-02-07T06:41:12.382Z,20.56
2019-02-07T06:41:44.577Z,20.57
2019-02-07T06:42:17.093Z,20.58
2019-02-07T06:42:49.394Z,20.56
2019-02-07T06:43:21.902Z,20.53
2019-02-07T06:43:53.943Z,20.56
2019-02-07T06:44:25.967Z,20.53
2019-02-07T06:44:58.000Z,20.61
2019-02-07T06:45:30.078Z,20.57
2019-02-07T06:46:02.804Z,20.54
2019-02-07T06:46:34.800Z,20.57
2019-02-07T06:47:13.355Z,20.57
2019-02-07T06:47:45.857Z,20.6
2019-02-07T06:48:19.195Z,20.56
2019-02-07T06:48:51.205Z,20.6
2019-02-07T06:49:24.128Z,20.6
2019-02-07T06:49:56.157Z,20.53
2019-02-07T06:50:28.173Z,20.57
2019-02-07T06:51:00.177Z,20.54
2019-02-07T06:51:32.181Z,20.61
2019-02-07T06:52:04.197Z,20.51
2019-02-07T06:52:36.256Z,20.6
2019-02-07T06:53:11.008Z,20.57
2019-02-07T06:53:43.306Z,20.49
2019-02-07T06:54:15.320Z,20.51
2019-02-07T06:54:47.324Z,20.48
2019-02-07T06:55:19.337Z,20.54
2019-02-07T06:55:51.348Z,20.57
2019-02-07T06:56:23.674Z,20.54
2019-02-07T06:56:55.707Z,20.54
2019-02-07T06:57:29.191Z,20.48